createdAt,value
2019-06-20T00:01:52.500Z,98371.22
2019-06-20T00:04:24.178Z,98375.14
2019-06-20T00:06:55.647Z,98387.56
2019-06-20T00:09:27.414Z,98384.84
2019-06-20T00:11:59.531Z,98381.06
2019-06-20T00:14:31.259Z,98380.02
2019-06-20T00:17:02.522Z,98393.72
2019-06-20T00:19:33.893Z,98398.33
2019-06-20T00:22:05.706Z,98393.71
2019-06-20T00:24:37.396Z,98401.97
2019-06-20T00:27:08.993Z,98407.07
2019-06-20T00:29:40.545Z,98405.06
2019-06-20T00:32:12.101Z,98408.69
2019-06-20T00:34:43.371Z,98404.95
2019-06-20T00:37:15.037Z,98405.12
2019-06-20T00:39:47.372Z,98405.12
2019-06-20T00:42:19.301Z,98409.09
2019-06-20T00:44:50.620Z,98404.94
2019-06-20T00:47:22.285Z,98412.84
2019-06-20T00:49:54.021Z,98412.73
2019-06-20T00:52:26.144Z,98418.94
2019-06-20T00:54:57.491Z,98418.94
2019-06-20T00:57:28.753Z,98417.33
2019-06-20T01:00:03.623Z,98424.38
2019-06-20T01:02:36.817Z,98424.03
2019-06-20T01:05:09.458Z,98424.08
2019-06-20T01:07:43.627Z,98414.95
2019-06-20T01:10:16.522Z,98421.16
2019-06-20T01:12:48.791Z,98430.78
2019-06-20T01:15:21.366Z,98442.30
2019-06-20T01:17:53.775Z,98442.33
2019-06-20T01:20:27.061Z,98442.33
2019-06-20T01:22:59.151Z,98438.19
2019-06-20T01:25:41.894Z,98439.18
2019-06-20T01:28:13.420Z,98439.18
2019-06-20T01:30:45.225Z,98443.16
2019-06-20T01:33:16.778Z,98452.81
2019-06-20T01:35:48.616Z,98454.78
2019-06-20T01:38:20.307Z,98451.56
2019-06-20T01:40:51.882Z,98454.70
2019-06-20T01:43:23.591Z,98454.55
2019-06-20T01:45:55.552Z,98460.53
2019-06-20T01:48:27.307Z,98462.55
2019-06-20T01:50:58.674Z,98461.86
2019-06-20T01:53:30.554Z,98460.03
2019-06-20T01:56:02.255Z,98465.35
2019-06-20T01:58:34.119Z,98465.35
2019-06-20T02:01:05.762Z,98467.21
2019-06-20T02:03:37.376Z,98468.19
2019-06-20T02:06:09.006Z,98470.86
2019-06-20T02:08:40.498Z,98470.86
2019-06-20T02:11:12.151Z,98477.02
2019-06-20T02:13:43.684Z,98479.48
2019-06-20T02:16:15.003Z,98479.48
2019-06-20T02:18:46.571Z,98484.17
2019-06-20T02:21:18.239Z,98479.17
2019-06-20T02:23:50.484Z,98482.52
2019-06-20T02:26:21.934Z,98474.54
2019-06-20T02:28:53.523Z,98477.20
2019-06-20T02:31:25.162Z,98477.66
2019-06-20T02:33:56.701Z,98482.02
2019-06-20T02:36:28.022Z,98483.48
2019-06-20T02:38:59.564Z,98487.30
2019-06-20T02:41:31.221Z,98489.80
2019-06-20T02:44:03.019Z,98490.81
2019-06-20T02:46:34.667Z,98489.16
2019-06-20T02:49:06.145Z,98483.98
2019-06-20T02:51:37.879Z,98483.98
2019-06-20T02:54:09.904Z,98494.62
2019-06-20T02:56:41.418Z,98488.47
2019-06-20T02:59:12.928Z,98488.77
2019-06-20T03:01:44.621Z,98488.25
2019-06-20T03:04:16.096Z,98484.06
2019-06-20T03:06:47.727Z,98476.70
2019-06-20T03:09:19.055Z,98480.91
2019-06-20T03:11:50.433Z,98480.91
2019-06-20T03:14:21.881Z,98484.02
2019-06-20T03:16:53.582Z,98484.02
2019-06-20T03:19:25.133Z,98481.21
2019-06-20T03:21:56.831Z,98492.96
2019-06-20T03:24:28.269Z,98482.07
2019-06-20T03:26:59.627Z,98482.07
2019-06-20T03:29:30.946Z,98483.34
2019-06-20T03:32:02.597Z,98488.14
2019-06-20T03:34:33.964Z,98487.61
2019-06-20T03:37:05.562Z,98477.92
2019-06-20T03:39:37.312Z,98483.08
2019-06-20T03:42:12.172Z,98484.34
2019-06-20T03:44:42.770Z,98483.52
2019-06-20T03:47:14.929Z,98483.45
2019-06-20T03:49:46.273Z,98488.95
2019-06-20T03:52:17.659Z,98483.62
2019-06-20T03:54:49.683Z,98483.62
2019-06-20T03:57:21.519Z,98490.50
2019-06-20T03:59:53.214Z,98487.11
2019-06-20T04:02:25.151Z,98483.63
2019-06-20T04:04:56.416Z,98484.12
2019-06-20T04:07:27.857Z,98484.48
2019-06-20T04:09:59.111Z,98483.84
2019-06-20T04:12:30.716Z,98483.84
2019-06-20T04:15:17.948Z,98485.58
2019-06-20T04:17:35.830Z,98494.30
2019-06-20T04:20:07.911Z,98495.07
2019-06-20T04:22:39.535Z,98492.96
2019-06-20T04:25:13.486Z,98492.44
2019-06-20T04:27:45.210Z,98490.02
2019-06-20T04:30:17.677Z,98491.00
2019-06-20T04:32:49.320Z,98489.84
2019-06-20T04:35:20.875Z,98493.36
2019-06-20T04:37:52.307Z,98482.58
2019-06-20T04:40:23.734Z,98482.58
2019-06-20T04:42:55.090Z,98479.31
2019-06-20T04:45:45.400Z,98474.17
2019-06-20T04:48:17.581Z,98468.95
2019-06-20T04:50:48.897Z,98468.95
2019-06-20T04:53:20.215Z,98466.02
2019-06-20T04:55:52.130Z,98466.83
2019-06-20T04:58:23.586Z,98452.72
2019-06-20T05:00:55.098Z,98452.72
2019-06-20T05:03:27.046Z,98450.14
2019-06-20T05:05:58.449Z,98449.80
2019-06-20T05:08:29.927Z,98457.62
2019-06-20T05:11:01.457Z,98461.31
2019-06-20T05:13:32.945Z,98461.31
2019-06-20T05:16:04.643Z,98458.97
2019-06-20T05:18:36.200Z,98460.23
2019-06-20T05:21:07.943Z,98462.28
2019-06-20T05:23:40.431Z,98461.37
2019-06-20T05:26:12.164Z,98461.37
2019-06-20T05:28:43.502Z,98459.83
2019-06-20T05:31:16.570Z,98461.80
2019-06-20T05:33:50.177Z,98462.27
2019-06-20T05:36:21.647Z,98462.27
2019-06-20T05:38:53.376Z,98464.56
2019-06-20T05:41:26.823Z,98460.03
2019-06-20T05:43:59.009Z,98460.03
2019-06-20T05:46:30.482Z,98453.37
2019-06-20T05:49:01.794Z,98452.44
2019-06-20T05:51:39.646Z,98448.59
2019-06-20T05:54:09.401Z,98450.02
2019-06-20T05:56:41.067Z,98446.25
2019-06-20T05:59:12.390Z,98446.38
2019-06-20T06:01:43.984Z,98446.38
2019-06-20T06:04:16.197Z,98452.44
2019-06-20T06:06:47.570Z,98442.45
2019-06-20T06:09:20.963Z,98446.26
2019-06-20T06:11:53.040Z,98447.34
2019-06-20T06:14:24.923Z,98447.34
2019-06-20T06:16:56.302Z,98443.35
2019-06-20T06:19:27.635Z,98443.35
2019-06-20T06:21:59.276Z,98434.96
2019-06-20T06:24:30.807Z,98434.96
2019-06-20T06:27:02.813Z,98441.62
2019-06-20T06:29:34.447Z,98436.23
2019-06-20T06:32:08.070Z,98432.49
2019-06-20T06:34:39.533Z,98427.14
2019-06-20T06:37:11.476Z,98427.14
2019-06-20T06:39:46.714Z,98427.22
2019-06-20T06:42:20.119Z,98422.39
2019-06-20T06:44:53.481Z,98422.39
2019-06-20T06:47:26.304Z,98419.97
2019-06-20T06:49:57.887Z,98411.71
2019-06-20T06:52:33.591Z,98411.71
2019-06-20T06:55:05.249Z,98403.05
2019-06-20T06:57:37.892Z,98405.05
2019-06-20T07:00:11.556Z,98403.74
2019-06-20T07:02:46.701Z,98404.38
2019-06-20T07:05:22.305Z,98398.28
2019-06-20T07:07:54.749Z,98398.28
2019-06-20T07:10:32.316Z,98390.98
2019-06-20T07:13:07.835Z,98379.06
2019-06-20T07:15:39.383Z,98379.06
2019-06-20T07:18:12.299Z,98375.02
2019-06-20T07:20:46.356Z,98371.39
2019-06-20T07:23:21.738Z,98375.38
2019-06-20T07:25:53.715Z,98371.59
2019-06-20T07:28:27.931Z,98371.59
2019-06-20T07:31:04.572Z,98367.05
2019-06-20T07:33:38.614Z,98364.29
2019-06-20T07:36:13.350Z,98354.29
2019-06-20T07:38:46.284Z,98354.29
2019-06-20T07:41:18.571Z,98356.82
2019-06-20T07:43:51.957Z,98357.48
2019-06-20T07:46:26.425Z,98356.86
2019-06-20T07:48:58.443Z,98356.86
2019-06-20T07:51:32.847Z,98348.38
2019-06-20T07:54:09.479Z,98348.38
2019-06-20T07:56:43.784Z,98350.89
2019-06-20T07:59:20.549Z,98342.77
2019-06-20T08:01:53.661Z,98344.23
2019-06-20T08:04:27.790Z,98336.98
2019-06-20T08:06:59.834Z,98335.84
2019-06-20T08:09:44.335Z,98333.98
2019-06-20T08:12:09.783Z,98327.59
2019-06-20T08:14:41.350Z,98319.61
2019-06-20T08:17:14.772Z,98319.61
2019-06-20T08:19:46.446Z,98324.49
2019-06-20T08:22:17.999Z,98318.98
2019-06-20T08:24:49.309Z,98318.98
2019-06-20T08:27:22.760Z,98311.12
2019-06-20T08:29:54.132Z,98311.12
2019-06-20T08:32:25.891Z,98310.53
2019-06-20T08:34:58.999Z,98306.25
2019-06-20T08:37:35.313Z,98302.81
2019-06-20T08:40:11.342Z,98290.53
2019-06-20T08:42:42.688Z,98290.53
2019-06-20T08:45:14.442Z,98279.78
2019-06-20T08:47:50.093Z,98279.78
2019-06-20T08:50:22.653Z,98274.12
2019-06-20T08:52:56.063Z,98279.97
2019-06-20T08:55:28.040Z,98279.58
2019-06-20T08:58:00.131Z,98273.05
2019-06-20T09:00:35.233Z,98267.86
2019-06-20T09:03:07.383Z,98262.25
2019-06-20T09:05:39.527Z,98260.89
2019-06-20T09:08:12.076Z,98260.89
2019-06-20T09:10:44.169Z,98255.77
2019-06-20T09:13:17.222Z,98247.61
2019-06-20T09:15:50.052Z,98246.54
2019-06-20T09:18:22.173Z,98246.86
2019-06-20T09:20:56.015Z,98240.16
2019-06-20T09:23:27.767Z,98237.27
2019-06-20T09:25:59.687Z,98234.70
2019-06-20T09:28:31.452Z,98226.55
2019-06-20T09:31:06.466Z,98223.15
2019-06-20T09:33:38.393Z,98217.34
2019-06-20T09:36:12.934Z,98209.45
2019-06-20T09:38:45.969Z,98208.28
2019-06-20T09:41:17.792Z,98205.47
2019-06-20T09:43:50.066Z,98203.16
2019-06-20T09:46:25.141Z,98202.66
2019-06-20T09:48:56.748Z,98200.40
2019-06-20T09:51:31.329Z,98187.42
2019-06-20T09:54:08.529Z,98184.33
2019-06-20T09:56:42.398Z,98176.55
2019-06-20T09:59:27.259Z,98176.55
2019-06-20T10:01:50.048Z,98176.45
2019-06-20T10:04:22.471Z,98175.09
2019-06-20T10:06:56.782Z,98167.28
2019-06-20T10:09:28.319Z,98161.10
2019-06-20T10:12:00.239Z,98158.70
2019-06-20T10:14:32.463Z,98161.88
2019-06-20T10:17:07.048Z,98152.25
2019-06-20T10:19:41.227Z,98148.16
2019-06-20T10:22:12.975Z,98140.86
2019-06-20T10:24:45.768Z,98130.19
2019-06-20T10:27:18.113Z,98130.19
2019-06-20T10:29:51.010Z,98123.77
2019-06-20T10:32:23.082Z,98122.47
2019-06-20T10:34:54.583Z,98110.13
2019-06-20T10:37:29.134Z,98110.13
2019-06-20T10:40:02.322Z,98117.46
2019-06-20T10:42:34.810Z,98111.24
2019-06-20T10:45:07.330Z,98104.98
2019-06-20T10:47:43.591Z,98108.70
2019-06-20T10:50:16.041Z,98104.98
2019-06-20T10:52:49.976Z,98098.66
2019-06-20T10:55:25.098Z,98092.72
2019-06-20T10:58:02.512Z,98086.77
2019-06-20T11:00:37.628Z,98087.31
2019-06-20T11:03:09.563Z,98073.29
2019-06-20T11:05:42.296Z,98073.29
2019-06-20T11:08:17.198Z,98064.44
2019-06-20T11:10:49.393Z,98064.44
2019-06-20T11:13:20.787Z,98059.78
2019-06-20T11:15:56.405Z,98060.30
2019-06-20T11:18:27.623Z,98049.94
2019-06-20T11:20:59.998Z,98055.36
2019-06-20T11:23:31.535Z,98056.52
2019-06-20T11:26:03.290Z,98045.55
2019-06-20T11:28:37.651Z,98047.26
2019-06-20T11:31:10.531Z,98044.48
2019-06-20T11:33:42.559Z,98039.52
2019-06-20T11:36:14.999Z,98038.69
2019-06-20T11:38:46.894Z,98037.48
2019-06-20T11:41:18.770Z,98037.39
2019-06-20T11:43:50.439Z,98034.72
2019-06-20T11:46:21.883Z,98033.48
2019-06-20T11:48:53.833Z,98028.38
2019-06-20T11:51:25.515Z,98022.30
2019-06-20T11:54:01.787Z,98021.82
2019-06-20T11:56:33.681Z,98019.36
2019-06-20T11:59:05.321Z,98022.77
2019-06-20T12:01:36.617Z,98024.41
2019-06-20T12:04:09.599Z,98022.20
2019-06-20T12:06:41.483Z,98022.20
2019-06-20T12:09:16.073Z,98020.50
2019-06-20T12:11:48.791Z,98020.50
2019-06-20T12:14:20.759Z,98015.81
2019-06-20T12:16:52.635Z,98022.72
2019-06-20T12:19:24.354Z,98018.28
2019-06-20T12:21:56.769Z,98026.33
2019-06-20T12:24:28.462Z,98025.50
2019-06-20T12:27:01.804Z,98027.09
2019-06-20T12:29:33.235Z,98021.48
2019-06-20T12:32:05.084Z,98018.80
2019-06-20T12:34:38.814Z,98012.00
2019-06-20T12:37:10.325Z,98017.97
2019-06-20T12:39:42.311Z,98024.11
2019-06-20T12:42:14.173Z,98024.11
2019-06-20T12:44:46.029Z,98021.63
2019-06-20T12:47:17.858Z,98024.06
2019-06-20T12:49:50.620Z,98024.06
2019-06-20T12:52:22.690Z,98021.01
2019-06-20T12:54:57.097Z,98025.03
2019-06-20T12:57:28.627Z,98034.52
2019-06-20T13:00:00.150Z,98028.27
2019-06-20T13:02:31.663Z,98027.28
2019-06-20T13:05:03.713Z,98027.28
2019-06-20T13:07:35.618Z,98031.84
2019-06-20T13:10:07.977Z,98031.84
2019-06-20T13:12:41.441Z,98040.45
2019-06-20T13:15:13.500Z,98035.80
2019-06-20T13:17:46.765Z,98043.98
2019-06-20T13:20:19.327Z,98043.27
2019-06-20T13:22:51.313Z,98049.97
2019-06-20T13:25:23.026Z,98059.48
2019-06-20T13:27:54.506Z,98059.48
2019-06-20T13:30:26.170Z,98048.22
2019-06-20T13:32:57.427Z,98048.22
2019-06-20T13:35:29.429Z,98048.34
2019-06-20T13:38:00.863Z,98050.91
2019-06-20T13:40:32.406Z,98042.63
2019-06-20T13:43:04.168Z,98040.17
2019-06-20T13:45:35.853Z,98043.16
2019-06-20T13:48:07.602Z,98037.94
2019-06-20T13:50:40.431Z,98043.29
2019-06-20T13:53:12.434Z,98045.77
2019-06-20T13:55:45.710Z,98039.50
2019-06-20T13:58:17.663Z,98046.31
2019-06-20T14:00:50.807Z,98041.17
2019-06-20T14:03:22.796Z,98047.13
2019-06-20T14:05:55.018Z,98053.30
2019-06-20T14:08:26.771Z,98058.47
2019-06-20T14:10:58.366Z,98054.27
2019-06-20T14:13:29.846Z,98058.05
2019-06-20T14:16:01.336Z,98067.73
2019-06-20T14:18:33.466Z,98067.73
2019-06-20T14:21:05.389Z,98074.63
2019-06-20T14:23:37.779Z,98076.36
2019-06-20T14:26:09.371Z,98079.66
2019-06-20T14:28:41.606Z,98084.08
2019-06-20T14:31:14.530Z,98084.08
2019-06-20T14:33:46.204Z,98087.38
2019-06-20T14:36:18.228Z,98085.73
2019-06-20T14:38:49.701Z,98096.95
2019-06-20T14:41:21.236Z,98112.29
2019-06-20T14:43:53.939Z,98112.29
2019-06-20T14:46:25.560Z,98114.53
2019-06-20T14:48:58.420Z,98122.37
2019-06-20T14:51:29.858Z,98122.37
2019-06-20T14:54:01.429Z,98118.55
2019-06-20T14:56:33.179Z,98123.78
2019-06-20T14:59:04.745Z,98129.77
2019-06-20T15:01:36.271Z,98147.20
2019-06-20T15:04:07.684Z,98147.20
2019-06-20T15:06:39.935Z,98159.35
2019-06-20T15:09:11.507Z,98159.35
2019-06-20T15:11:45.855Z,98165.97
2019-06-20T15:14:17.683Z,98165.97
2019-06-20T15:16:49.534Z,98165.53
2019-06-20T15:19:20.982Z,98172.83
2019-06-20T15:21:52.523Z,98172.83
2019-06-20T15:24:24.614Z,98180.15
2019-06-20T15:26:56.477Z,98182.55
2019-06-20T15:29:28.224Z,98181.34
2019-06-20T15:32:00.032Z,98188.66
2019-06-20T15:34:31.985Z,98188.66
2019-06-20T15:37:06.364Z,98195.09
2019-06-20T15:39:38.374Z,98193.09
2019-06-20T15:42:09.928Z,98196.42
2019-06-20T15:44:41.693Z,98204.44
2019-06-20T15:47:13.797Z,98206.52
2019-06-20T15:49:45.624Z,98206.92
2019-06-20T15:52:17.332Z,98206.92
2019-06-20T15:54:49.315Z,98209.77
2019-06-20T15:57:21.112Z,98216.98
2019-06-20T16:00:01.901Z,98220.48
2019-06-20T16:02:33.588Z,98220.48
2019-06-20T16:05:05.756Z,98226.73
2019-06-20T16:07:37.863Z,98234.47
2019-06-20T16:10:10.711Z,98237.19
2019-06-20T16:12:42.616Z,98237.19
2019-06-20T16:15:16.101Z,98249.39
2019-06-20T16:17:48.331Z,98249.39
2019-06-20T16:20:20.161Z,98258.81
2019-06-20T16:22:51.965Z,98265.66
2019-06-20T16:25:25.016Z,98264.02
2019-06-20T16:27:56.667Z,98258.70
2019-06-20T16:30:28.660Z,98259.11
2019-06-20T16:33:00.681Z,98267.73
2019-06-20T16:35:33.026Z,98268.47
2019-06-20T16:38:05.358Z,98280.94
2019-06-20T16:40:46.489Z,98283.38
2019-06-20T16:43:18.237Z,98291.59
2019-06-20T16:45:50.161Z,98291.59
2019-06-20T16:48:21.712Z,98297.45
2019-06-20T16:50:53.340Z,98292.98
2019-06-20T16:53:27.182Z,98298.24
2019-06-20T16:55:58.831Z,98297.92
2019-06-20T16:58:30.408Z,98300.13
2019-06-20T17:01:02.036Z,98308.96
2019-06-20T17:03:41.625Z,98308.96
2019-06-20T17:06:07.244Z,98306.84
2019-06-20T17:08:40.062Z,98307.78
2019-06-20T17:11:11.756Z,98313.73
2019-06-20T17:13:43.676Z,98311.38
2019-06-20T17:16:15.056Z,98323.78
2019-06-20T17:18:46.593Z,98323.88
2019-06-20T17:21:18.601Z,98326.96
2019-06-20T17:23:49.970Z,98328.81
2019-06-20T17:26:22.284Z,98335.97
2019-06-20T17:28:54.140Z,98337.43
2019-06-20T17:31:25.914Z,98337.43
2019-06-20T17:33:58.031Z,98342.25
2019-06-20T17:36:29.862Z,98342.25
2019-06-20T17:39:01.854Z,98348.47
2019-06-20T17:41:34.879Z,98345.11
2019-06-20T17:44:06.270Z,98337.78
2019-06-20T17:46:38.030Z,98334.34
2019-06-20T17:49:09.634Z,98333.98
2019-06-20T17:51:41.328Z,98331.30
2019-06-20T17:54:14.114Z,98330.46
2019-06-20T17:56:45.477Z,98327.61
2019-06-20T17:59:17.172Z,98324.56
2019-06-20T18:01:48.963Z,98324.78
2019-06-20T18:04:22.478Z,98321.52
2019-06-20T18:06:53.970Z,98321.52
2019-06-20T18:09:25.809Z,98322.59
2019-06-20T18:11:57.638Z,98311.42
2019-06-20T18:14:29.306Z,98311.42
2019-06-20T18:17:00.782Z,98320.27
2019-06-20T18:19:32.688Z,98323.89
2019-06-20T18:22:04.233Z,98332.34
2019-06-20T18:24:35.810Z,98337.86
2019-06-20T18:27:07.739Z,98337.86
2019-06-20T18:29:39.335Z,98342.98
2019-06-20T18:32:10.942Z,98342.98
2019-06-20T18:34:42.731Z,98338.84
2019-06-20T18:37:30.179Z,98341.54
2019-06-20T18:39:48.433Z,98345.87
2019-06-20T18:42:19.942Z,98336.22
2019-06-20T18:44:51.625Z,98341.71
2019-06-20T18:47:23.101Z,98344.89
2019-06-20T18:49:54.550Z,98345.91
2019-06-20T18:52:26.319Z,98345.91
2019-06-20T18:54:58.019Z,98348.23
2019-06-20T18:57:29.790Z,98350.66
2019-06-20T19:00:01.413Z,98352.01
2019-06-20T19:02:33.151Z,98352.01
2019-06-20T19:05:04.835Z,98355.61
2019-06-20T19:07:36.191Z,98348.52
2019-06-20T19:10:08.396Z,98346.45
2019-06-20T19:12:39.855Z,98350.09
2019-06-20T19:15:11.867Z,98339.56
2019-06-20T19:17:43.413Z,98330.81
2019-06-20T19:20:15.085Z,98329.31
2019-06-20T19:22:46.532Z,98344.82
2019-06-20T19:25:19.037Z,98345.52
2019-06-20T19:27:51.327Z,98342.66
2019-06-20T19:30:28.471Z,98333.00
2019-06-20T19:33:00.203Z,98329.32
2019-06-20T19:35:31.910Z,98335.11
2019-06-20T19:38:03.679Z,98328.92
2019-06-20T19:40:38.953Z,98321.80
2019-06-20T19:43:10.725Z,98335.83
2019-06-20T19:45:42.439Z,98335.83
2019-06-20T19:48:14.713Z,98317.75
2019-06-20T19:50:46.361Z,98317.75
2019-06-20T19:53:18.305Z,98325.66
2019-06-20T19:55:50.993Z,98325.66
2019-06-20T19:58:23.546Z,98323.17
2019-06-20T20:00:55.372Z,98320.75
2019-06-20T20:03:26.887Z,98312.89
2019-06-20T20:05:58.717Z,98317.91
2019-06-20T20:08:30.367Z,98313.14
2019-06-20T20:11:02.389Z,98305.58
2019-06-20T20:13:33.766Z,98302.77
2019-06-20T20:16:05.557Z,98295.74
2019-06-20T20:18:37.519Z,98296.39
2019-06-20T20:21:09.756Z,98302.13
2019-06-20T20:23:41.337Z,98298.55
2019-06-20T20:26:12.888Z,98290.66
2019-06-20T20:28:44.604Z,98293.97
2019-06-20T20:31:16.128Z,98294.22
2019-06-20T20:33:47.789Z,98289.72
2019-06-20T20:36:24.789Z,98287.23
2019-06-20T20:38:53.074Z,98287.70
2019-06-20T20:41:24.936Z,98285.36
2019-06-20T20:43:56.516Z,98285.36
2019-06-20T20:46:27.948Z,98291.63
2019-06-20T20:49:00.372Z,98291.41
2019-06-20T20:51:32.084Z,98288.31
2019-06-20T20:54:04.197Z,98282.26
2019-06-20T20:56:38.219Z,98281.07
2019-06-20T20:59:09.630Z,98288.53
2019-06-20T21:01:41.151Z,98280.45
2019-06-20T21:04:12.841Z,98276.84
2019-06-20T21:06:44.653Z,98276.45
2019-06-20T21:09:16.110Z,98276.30
2019-06-20T21:11:48.364Z,98268.27
2019-06-20T21:14:19.773Z,98264.38
2019-06-20T21:16:51.421Z,98277.20
2019-06-20T21:19:23.178Z,98277.20
2019-06-20T21:21:54.572Z,98272.13
2019-06-20T21:24:26.040Z,98272.52
2019-06-20T21:26:57.951Z,98277.53
2019-06-20T21:29:30.493Z,98276.54
2019-06-20T21:32:01.931Z,98276.54
2019-06-20T21:34:33.528Z,98271.11
2019-06-20T21:37:05.225Z,98263.65
2019-06-20T21:39:38.760Z,98263.65
2019-06-20T21:42:10.282Z,98268.98
2019-06-20T21:47:08.520Z,98264.20
2019-06-20T21:49:40.182Z,98263.47
2019-06-20T21:52:12.151Z,98258.97
2019-06-20T21:54:43.573Z,98258.42
2019-06-20T21:57:15.196Z,98260.66
2019-06-20T21:59:46.586Z,98258.13
2019-06-20T22:02:18.153Z,98261.80
2019-06-20T22:04:54.389Z,98254.13
2019-06-20T22:07:22.800Z,98254.13
2019-06-20T22:09:54.338Z,98262.45
2019-06-20T22:12:26.126Z,98256.79
2019-06-20T22:14:57.526Z,98258.45
2019-06-20T22:17:31.200Z,98252.80
2019-06-20T22:20:03.036Z,98252.80
2019-06-20T22:22:34.472Z,98258.95
2019-06-20T22:25:06.555Z,98256.11
2019-06-20T22:27:38.056Z,98268.52
2019-06-20T22:30:10.849Z,98270.53
2019-06-20T22:32:42.415Z,98270.53
2019-06-20T22:35:13.954Z,98268.02
2019-06-20T22:37:46.323Z,98265.45
2019-06-20T22:40:18.171Z,98274.09
2019-06-20T22:42:49.852Z,98267.22
2019-06-20T22:45:21.416Z,98265.03
2019-06-20T22:47:53.014Z,98263.78
2019-06-20T22:50:24.762Z,98260.17
2019-06-20T22:52:56.179Z,98260.47
2019-06-20T22:55:27.924Z,98256.39
2019-06-20T22:57:59.561Z,98260.38
2019-06-20T23:00:31.228Z,98260.11
2019-06-20T23:03:02.981Z,98262.55
2019-06-20T23:05:35.006Z,98259.29
2019-06-20T23:08:06.803Z,98268.70
2019-06-20T23:10:38.471Z,98272.45
2019-06-20T23:13:10.590Z,98262.10
2019-06-20T23:15:42.221Z,98262.10
2019-06-20T23:18:15.552Z,98278.68
2019-06-20T23:21:03.542Z,98278.68
2019-06-20T23:23:20.447Z,98282.75
2019-06-20T23:25:54.519Z,98288.33
2019-06-20T23:28:26.426Z,98288.33
2019-06-20T23:30:57.715Z,98294.16
2019-06-20T23:33:29.123Z,98293.77
2019-06-20T23:36:00.506Z,98292.49
2019-06-20T23:38:31.765Z,98294.50
2019-06-20T23:41:03.503Z,98300.48
2019-06-20T23:43:35.238Z,98300.48
2019-06-20T23:46:06.887Z,98314.16
2019-06-20T23:48:39.431Z,98314.16
2019-06-20T23:51:24.690Z,98318.60
2019-06-20T23:53:44.294Z,98322.58
2019-06-20T23:56:15.935Z,98329.91
2019-06-20T23:58:47.726Z,98329.91
